METAR Data
IDs: Format: Raw Decoded Include TAF

Data at: 0251 UTC 25 Jan 2020

METAR for:KAIO (Atlantic Muni, IA, US)
Text:KAIO 250235Z AUTO 34014KT 10SM OVC015 M01/M01 A3002 RMK AO2
Temperature: -1.0°C ( 30°F)
Dewpoint: -1.0°C ( 30°F) [RH = 100%]
Pressure (altimeter):30.02 inches Hg (1016.7 mb)
Winds:from the NNW (340 degrees) at 16 MPH (14 knots; 7.2 m/s)
Visibility:10 or more sm (16+ km)
Ceiling:1500 feet AGL
Clouds: overcast cloud deck at 1500 feet AGL
QC Flag:automated observation with no human augmentation